Time;durP1;ratioP1;P1;durP2;ratioP2;P2;SDS_P1;SDS_P2;PMS_P1;PMS_P2;Temp;Humidity;BMP_temperature;BMP_pressure;BME280_temperature;BME280_humidity;BME280_pressure;Samples;Min_cycle;Max_cycle;Signal;HPM_P1;HPM_P2
2023/04/19 00:00:21;;;;;;;8.15;4.32;;;9.50;57.20;;;;;;5052859;28;20205;-64
2023/04/19 00:02:48;;;;;;;5.18;3.70;;;9.50;56.50;;;;;;5053929;28;20308;-64
2023/04/19 00:05:15;;;;;;;10.15;4.40;;;9.50;55.80;;;;;;5053721;28;20201;-64
2023/04/19 00:07:42;;;;;;;5.75;4.15;;;9.40;55.00;;;;;;5053853;28;20240;-66
2023/04/19 00:10:10;;;;;;;4.78;3.78;;;9.40;54.40;;;;;;5054308;28;20201;-65
2023/04/19 00:12:37;;;;;;;5.75;3.72;;;9.40;53.40;;;;;;5053223;28;20617;-65
2023/04/19 00:15:05;;;;;;;3.70;3.33;;;9.40;53.40;;;;;;5053143;28;20201;-64
2023/04/19 00:17:32;;;;;;;4.95;3.30;;;9.30;53.00;;;;;;5052769;28;20247;-65
2023/04/19 00:19:58;;;;;;;4.50;3.35;;;9.30;53.20;;;;;;5052910;28;20197;-65
2023/04/19 00:22:26;;;;;;;5.30;3.85;;;9.30;53.20;;;;;;5052580;28;20698;-65
2023/04/19 00:24:52;;;;;;;4.78;4.00;;;9.30;52.90;;;;;;5053022;28;20205;-65
2023/04/19 00:27:21;;;;;;;5.80;3.08;;;9.20;52.60;;;;;;5056895;28;20198;-64
2023/04/19 00:29:48;;;;;;;5.47;3.65;;;9.20;51.70;;;;;;5057611;28;20220;-65
2023/04/19 00:32:15;;;;;;;4.57;3.33;;;9.10;51.50;;;;;;5057113;28;20682;-65
2023/04/19 00:34:42;;;;;;;7.00;3.40;;;9.10;52.00;;;;;;5057099;28;20204;-64
2023/04/19 00:37:09;;;;;;;4.70;2.85;;;9.00;51.70;;;;;;5057346;28;20225;-66
2023/04/19 00:39:36;;;;;;;3.53;3.17;;;9.00;51.80;;;;;;5059014;28;20221;-65
2023/04/19 00:42:03;;;;;;;5.82;3.83;;;9.00;51.80;;;;;;5057749;28;20209;-64
2023/04/19 00:44:31;;;;;;;5.20;3.35;;;8.90;51.70;;;;;;5057636;28;20205;-64
2023/04/19 00:47:00;;;;;;;6.38;3.30;;;8.90;51.80;;;;;;5057265;28;20208;-65
2023/04/19 00:49:28;;;;;;;6.15;3.25;;;8.80;52.00;;;;;;5057206;28;20217;-65
2023/04/19 00:51:54;;;;;;;3.70;3.40;;;8.80;52.10;;;;;;5057606;28;20584;-64
2023/04/19 00:54:21;;;;;;;4.82;3.10;;;8.70;52.00;;;;;;5058095;28;20212;-65
2023/04/19 00:56:48;;;;;;;5.20;3.08;;;8.60;52.20;;;;;;5057411;28;20217;-65
2023/04/19 00:59:16;;;;;;;5.80;3.33;;;8.50;52.40;;;;;;5058069;28;20221;-65
2023/04/19 01:01:44;;;;;;;5.60;3.08;;;8.40;52.50;;;;;;5057936;28;20209;-64
2023/04/19 01:04:11;;;;;;;4.78;3.45;;;8.40;52.80;;;;;;5057356;28;20210;-65
2023/04/19 01:06:40;;;;;;;3.95;3.03;;;8.30;53.20;;;;;;5056510;28;20574;-65
2023/04/19 01:09:06;;;;;;;7.78;3.28;;;8.20;53.40;;;;;;5056427;28;20224;-64
2023/04/19 01:11:34;;;;;;;6.68;3.47;;;8.10;53.70;;;;;;5056106;28;20206;-64
2023/04/19 01:14:01;;;;;;;3.40;3.10;;;8.00;53.90;;;;;;5056183;28;20210;-64
2023/04/19 01:16:29;;;;;;;3.65;2.97;;;7.90;54.10;;;;;;5057723;28;20275;-66
2023/04/19 01:18:57;;;;;;;4.35;2.78;;;7.80;54.50;;;;;;5056420;28;20605;-66
2023/04/19 01:21:24;;;;;;;5.03;2.50;;;7.70;54.80;;;;;;5056307;28;20229;-65
2023/04/19 01:23:52;;;;;;;4.05;2.90;;;7.60;55.10;;;;;;5056858;28;20581;-65
2023/04/19 01:26:19;;;;;;;4.55;3.13;;;7.50;55.30;;;;;;5056225;28;20194;-66
2023/04/19 01:28:46;;;;;;;3.58;3.05;;;7.40;55.60;;;;;;5056227;28;20236;-65
2023/04/19 01:31:13;;;;;;;4.15;2.85;;;7.30;55.90;;;;;;5056859;28;20704;-65
2023/04/19 01:33:39;;;;;;;3.00;2.60;;;7.30;56.40;;;;;;5056737;28;20210;-65
2023/04/19 01:36:07;;;;;;;4.97;3.20;;;7.20;56.50;;;;;;5056770;28;20228;-66
2023/04/19 01:38:34;;;;;;;5.05;2.55;;;7.10;56.90;;;;;;5055575;28;20226;-66
2023/04/19 01:41:03;;;;;;;5.00;2.83;;;7.00;57.20;;;;;;5056219;28;20301;-65
2023/04/19 01:43:29;;;;;;;4.93;3.15;;;7.00;57.50;;;;;;5056281;28;20198;-65
2023/04/19 01:45:56;;;;;;;3.53;3.15;;;6.90;57.80;;;;;;5055738;28;20202;-65
2023/04/19 01:48:23;;;;;;;3.45;2.88;;;6.90;58.20;;;;;;5055729;28;20257;-65
2023/04/19 01:50:50;;;;;;;2.97;2.50;;;6.80;58.50;;;;;;5055370;28;20256;-64
2023/04/19 01:53:17;;;;;;;4.28;3.40;;;6.80;58.80;;;;;;5055387;28;20205;-65
2023/04/19 01:55:44;;;;;;;5.68;3.75;;;6.70;59.10;;;;;;5055259;28;20736;-65
2023/04/19 01:58:12;;;;;;;5.97;3.20;;;6.60;59.40;;;;;;5055953;28;20225;-65
2023/04/19 02:00:39;;;;;;;3.67;3.17;;;6.60;59.70;;;;;;5056353;28;20577;-65
2023/04/19 02:03:05;;;;;;;3.65;2.50;;;6.50;60.00;;;;;;5055997;28;20204;-65
2023/04/19 02:05:32;;;;;;;3.20;2.80;;;6.40;60.40;;;;;;5055618;28;20576;-65
2023/04/19 02:08:00;;;;;;;4.60;2.95;;;6.40;61.00;;;;;;5055404;28;20221;-65
2023/04/19 02:10:27;;;;;;;4.22;2.63;;;6.30;61.50;;;;;;5055237;28;20574;-65
2023/04/19 02:12:54;;;;;;;5.13;2.75;;;6.30;62.10;;;;;;5055219;28;20207;-65
2023/04/19 02:15:23;;;;;;;4.47;3.22;;;6.30;62.40;;;;;;5055248;28;20630;-65
2023/04/19 02:17:49;;;;;;;6.85;3.10;;;6.20;62.80;;;;;;5055047;28;20237;-65
2023/04/19 02:20:16;;;;;;;3.80;2.83;;;6.20;63.30;;;;;;5055047;28;20623;-65
2023/04/19 02:22:43;;;;;;;7.53;3.03;;;6.20;63.60;;;;;;5055172;28;20202;-64
2023/04/19 02:25:10;;;;;;;6.70;3.03;;;6.10;64.10;;;;;;5054947;28;20201;-64
2023/04/19 02:27:37;;;;;;;5.38;3.03;;;6.10;64.50;;;;;;5054832;28;20744;-65
2023/04/19 02:30:04;;;;;;;3.88;2.70;;;6.10;65.00;;;;;;5054557;28;20209;-63
2023/04/19 02:32:33;;;;;;;4.40;3.10;;;6.00;65.50;;;;;;5054797;28;20208;-65
2023/04/19 02:34:59;;;;;;;4.82;3.03;;;6.00;66.10;;;;;;5054859;28;20634;-64
2023/04/19 02:37:26;;;;;;;4.68;3.25;;;6.00;66.60;;;;;;5054515;28;20313;-63
2023/04/19 02:39:53;;;;;;;4.30;2.80;;;5.90;67.10;;;;;;5054744;28;20285;-64
2023/04/19 02:42:20;;;;;;;4.53;3.13;;;5.90;67.70;;;;;;5054513;28;20208;-65
2023/04/19 02:44:47;;;;;;;4.20;2.85;;;5.80;68.00;;;;;;5054576;28;20348;-64
2023/04/19 02:47:13;;;;;;;5.63;3.50;;;5.80;68.70;;;;;;5055065;28;20200;-64
2023/04/19 02:49:42;;;;;;;3.20;2.90;;;5.80;69.10;;;;;;5054439;28;20206;-64
2023/04/19 02:52:08;;;;;;;3.10;2.80;;;5.70;69.50;;;;;;5054204;28;20202;-64
2023/04/19 02:54:35;;;;;;;6.63;2.47;;;5.70;70.20;;;;;;5054525;28;20289;-64
2023/04/19 02:57:02;;;;;;;3.28;2.80;;;5.60;70.90;;;;;;5054385;28;20233;-64
2023/04/19 02:59:29;;;;;;;5.20;2.97;;;5.60;71.50;;;;;;5054532;28;20229;-64
2023/04/19 03:01:56;;;;;;;5.68;3.78;;;5.50;71.80;;;;;;5054179;28;20205;-64
2023/04/19 03:04:22;;;;;;;3.67;3.10;;;5.50;72.70;;;;;;5054215;28;20201;-64
2023/04/19 03:06:51;;;;;;;4.45;2.85;;;5.50;73.40;;;;;;5054622;28;20206;-64
2023/04/19 03:09:18;;;;;;;3.58;3.00;;;5.40;74.30;;;;;;5054078;28;20240;-64
2023/04/19 03:11:45;;;;;;;3.28;2.80;;;5.40;75.10;;;;;;5054161;28;20212;-64
2023/04/19 03:14:12;;;;;;;4.43;2.83;;;5.40;75.70;;;;;;5053613;28;20201;-64
2023/04/19 03:16:39;;;;;;;3.10;2.80;;;5.30;75.90;;;;;;5053667;28;20201;-64
2023/04/19 03:19:05;;;;;;;3.30;2.30;;;5.30;76.40;;;;;;5053548;28;20570;-65
2023/04/19 03:21:32;;;;;;;3.38;2.50;;;5.30;77.10;;;;;;5053621;28;20224;-65
2023/04/19 03:24:01;;;;;;;4.65;2.95;;;5.30;77.70;;;;;;5053747;28;20208;-65
2023/04/19 03:26:27;;;;;;;3.72;2.70;;;5.30;78.30;;;;;;5053619;28;20243;-66
2023/04/19 03:28:54;;;;;;;12.75;3.33;;;5.20;78.60;;;;;;5053425;28;20316;-65
2023/04/19 03:31:21;;;;;;;5.05;3.15;;;5.20;78.90;;;;;;5053519;28;20201;-65
2023/04/19 03:33:48;;;;;;;5.18;3.10;;;5.20;79.30;;;;;;5053455;28;20205;-65
2023/04/19 03:36:15;;;;;;;3.47;2.58;;;5.20;79.80;;;;;;5053058;28;20686;-65
2023/04/19 03:38:43;;;;;;;5.50;3.90;;;5.20;80.20;;;;;;5053680;28;20249;-65
2023/04/19 03:41:19;;;;;;;5.05;2.92;;;5.20;80.40;;;;;;5052942;28;20201;-65
2023/04/19 03:43:46;;;;;;;4.35;2.72;;;5.10;80.70;;;;;;5053478;28;20200;-64
2023/04/19 03:46:13;;;;;;;5.90;3.22;;;5.10;81.00;;;;;;5053452;28;20220;-65
2023/04/19 03:48:39;;;;;;;4.53;2.72;;;5.10;81.60;;;;;;5053127;28;20226;-64
2023/04/19 03:51:06;;;;;;;3.78;2.58;;;5.10;81.80;;;;;;5053295;28;20644;-65
2023/04/19 03:53:33;;;;;;;5.22;2.95;;;5.00;82.10;;;;;;5053500;28;20213;-65
2023/04/19 03:56:00;;;;;;;7.38;3.40;;;5.00;82.70;;;;;;5052812;28;20673;-65
2023/04/19 03:58:28;;;;;;;3.45;2.60;;;5.00;82.90;;;;;;5052724;28;20226;-65
2023/04/19 04:00:55;;;;;;;2.95;2.65;;;5.00;83.40;;;;;;5052764;28;20213;-64
2023/04/19 04:03:22;;;;;;;2.78;2.45;;;4.90;83.90;;;;;;5053158;28;20270;-65
2023/04/19 04:05:49;;;;;;;4.60;2.45;;;4.90;84.20;;;;;;5053668;28;20208;-65
2023/04/19 04:11:34;;;;;;;3.67;2.80;;;4.80;84.70;;;;;;5091236;28;21011;-66
2023/04/19 04:14:01;;;;;;;3.55;2.60;;;4.80;85.10;;;;;;5091034;28;20206;-65
2023/04/19 04:16:28;;;;;;;2.95;2.53;;;4.80;86.00;;;;;;5091091;28;20200;-65
2023/04/19 04:18:55;;;;;;;4.57;2.80;;;4.70;86.70;;;;;;5090827;28;20710;-65
2023/04/19 04:21:23;;;;;;;3.92;2.50;;;4.70;87.30;;;;;;5094055;28;20200;-65
2023/04/19 04:23:50;;;;;;;4.80;2.97;;;4.60;88.10;;;;;;5092015;28;20204;-66
2023/04/19 04:26:18;;;;;;;3.67;2.80;;;4.60;88.90;;;;;;5092159;28;20254;-66
2023/04/19 04:28:47;;;;;;;4.70;2.78;;;4.60;89.80;;;;;;5093683;28;20228;-65
2023/04/19 04:31:16;;;;;;;6.07;2.85;;;4.70;90.20;;;;;;5093176;28;20227;-66
2023/04/19 04:33:44;;;;;;;4.80;2.50;;;4.80;90.30;;;;;;5099558;22;20704;-62
2023/04/19 04:36:11;;;;;;;3.45;3.08;;;5.00;90.20;;;;;;5050292;28;20575;-63
2023/04/19 04:38:38;;;;;;;2.97;2.67;;;5.20;90.00;;;;;;5050716;28;20205;-63
2023/04/19 04:41:05;;;;;;;3.80;2.75;;;5.40;90.00;;;;;;5050350;28;20204;-63
2023/04/19 04:43:33;;;;;;;3.47;2.85;;;5.60;89.70;;;;;;5049901;28;20284;-63
2023/04/19 04:46:02;;;;;;;4.93;3.03;;;5.70;88.60;;;;;;5050141;28;20218;-62
2023/04/19 04:48:30;;;;;;;5.10;2.53;;;5.90;87.60;;;;;;5050208;28;20198;-62
2023/04/19 04:50:57;;;;;;;4.20;2.20;;;6.10;86.90;;;;;;5049827;28;20287;-63
2023/04/19 04:53:26;;;;;;;3.72;2.60;;;6.20;85.90;;;;;;5050109;28;20228;-63
2023/04/19 04:55:53;;;;;;;3.22;2.58;;;6.20;84.60;;;;;;5049359;28;20211;-62
2023/04/19 04:58:20;;;;;;;3.20;2.90;;;6.20;84.40;;;;;;5049846;28;20202;-62
2023/04/19 05:00:47;;;;;;;5.50;3.58;;;6.10;83.80;;;;;;5049506;28;20209;-62
2023/04/19 05:03:16;;;;;;;5.30;3.05;;;6.10;83.80;;;;;;5050273;28;20639;-62
2023/04/19 05:05:43;;;;;;;3.45;2.88;;;6.00;83.80;;;;;;5049235;28;20684;-62
2023/04/19 05:08:09;;;;;;;4.07;2.70;;;6.00;83.80;;;;;;5049805;28;20202;-62
2023/04/19 05:10:36;;;;;;;3.35;2.63;;;6.00;83.70;;;;;;5050134;28;20228;-62
2023/04/19 05:13:03;;;;;;;3.05;2.50;;;5.80;83.80;;;;;;5049417;28;20715;-62
2023/04/19 05:15:30;;;;;;;6.57;3.17;;;5.80;84.10;;;;;;5049742;28;20198;-61
2023/04/19 05:17:57;;;;;;;5.60;3.28;;;5.70;84.50;;;;;;5050030;28;20621;-62
2023/04/19 05:20:25;;;;;;;4.88;2.58;;;5.70;84.80;;;;;;5050706;28;20201;-63
2023/04/19 05:22:57;;;;;;;8.40;3.17;;;5.70;85.00;;;;;;5036938;28;20226;-62
2023/04/19 05:25:24;;;;;;;3.78;2.65;;;5.70;84.90;;;;;;5037255;28;20248;-62
2023/04/19 05:27:51;;;;;;;3.60;2.83;;;5.70;85.10;;;;;;5036692;28;20205;-62
2023/04/19 05:30:18;;;;;;;4.28;3.15;;;5.70;85.40;;;;;;5036383;28;20250;-62
2023/04/19 05:32:45;;;;;;;7.57;3.03;;;5.70;85.50;;;;;;5036249;28;20313;-62
2023/04/19 05:35:12;;;;;;;4.35;2.70;;;5.70;85.60;;;;;;5036274;28;20195;-62
2023/04/19 05:37:41;;;;;;;4.28;3.20;;;5.70;85.50;;;;;;5035876;28;20233;-62
2023/04/19 05:40:09;;;;;;;4.78;3.55;;;5.80;85.60;;;;;;5036057;28;20206;-63
2023/04/19 05:42:36;;;;;;;5.05;2.50;;;5.80;85.50;;;;;;5035842;28;20225;-62
2023/04/19 05:45:03;;;;;;;4.63;3.00;;;5.90;85.50;;;;;;5035735;28;20206;-62
2023/04/19 05:47:30;;;;;;;3.45;2.42;;;6.00;85.20;;;;;;5035698;28;20198;-62
2023/04/19 05:49:57;;;;;;;3.20;2.58;;;6.10;85.20;;;;;;5036119;28;20701;-62
2023/04/19 05:52:24;;;;;;;5.22;2.95;;;6.20;84.80;;;;;;5036059;28;20289;-62
2023/04/19 05:54:52;;;;;;;4.47;2.85;;;6.30;84.50;;;;;;5036198;28;20275;-63
2023/04/19 05:57:19;;;;;;;4.93;2.85;;;6.50;83.90;;;;;;5035886;28;20277;-63
2023/04/19 05:59:46;;;;;;;4.25;3.67;;;6.60;82.50;;;;;;5035818;28;20205;-64
2023/04/19 06:02:12;;;;;;;3.55;2.95;;;6.70;81.60;;;;;;5035264;28;20206;-63
2023/04/19 06:04:39;;;;;;;5.10;2.50;;;6.80;80.30;;;;;;5035187;28;20203;-63
2023/04/19 06:07:07;;;;;;;4.13;2.17;;;6.90;80.10;;;;;;5034960;28;20206;-63
2023/04/19 06:09:34;;;;;;;5.50;3.00;;;7.00;79.20;;;;;;5034490;28;20206;-63
2023/04/19 06:12:02;;;;;;;3.17;2.15;;;7.10;78.10;;;;;;5035710;28;20214;-63
2023/04/19 06:14:29;;;;;;;3.65;2.50;;;7.20;77.80;;;;;;5034696;28;20229;-63
2023/04/19 06:16:56;;;;;;;3.92;2.63;;;7.30;76.90;;;;;;5035100;28;20207;-62
2023/04/19 06:19:22;;;;;;;4.13;2.22;;;7.40;76.00;;;;;;5035142;28;20280;-62
2023/04/19 06:21:49;;;;;;;4.10;2.20;;;7.60;75.20;;;;;;5034874;28;20198;-63
2023/04/19 06:24:16;;;;;;;3.15;2.63;;;7.70;74.10;;;;;;5034685;28;20312;-62
2023/04/19 06:26:43;;;;;;;5.78;2.35;;;7.80;73.00;;;;;;5034446;28;20217;-62
2023/04/19 06:29:11;;;;;;;2.85;2.30;;;7.90;72.60;;;;;;5034792;28;20210;-63
2023/04/19 06:31:38;;;;;;;6.80;2.15;;;7.90;71.90;;;;;;5034503;28;20317;-62
2023/04/19 06:34:05;;;;;;;2.53;2.20;;;8.00;70.70;;;;;;5033709;28;20232;-62
2023/04/19 06:36:32;;;;;;;2.65;2.38;;;8.10;70.10;;;;;;5034810;28;20296;-63
2023/04/19 06:38:59;;;;;;;8.38;2.70;;;8.20;69.00;;;;;;5034954;28;20206;-61
2023/04/19 06:41:26;;;;;;;2.85;2.33;;;8.20;68.40;;;;;;5035059;28;20217;-62
2023/04/19 06:43:53;;;;;;;3.75;2.08;;;8.30;67.90;;;;;;5035343;28;20223;-62
2023/04/19 06:46:21;;;;;;;2.33;2.13;;;8.40;66.90;;;;;;5035152;28;20226;-61
2023/04/19 06:48:48;;;;;;;3.13;2.15;;;8.50;66.40;;;;;;5035814;28;20198;-63
2023/04/19 06:51:15;;;;;;;2.83;1.95;;;8.60;66.00;;;;;;5034620;28;20226;-62
2023/04/19 06:53:43;;;;;;;3.28;2.25;;;8.70;65.10;;;;;;5034631;28;20276;-61
2023/04/19 06:56:11;;;;;;;2.55;1.92;;;8.80;63.90;;;;;;5034550;28;20206;-61
2023/04/19 06:58:38;;;;;;;3.42;2.17;;;8.90;63.10;;;;;;5033982;28;20298;-61
2023/04/19 07:01:05;;;;;;;3.25;2.17;;;9.00;63.00;;;;;;5034351;28;20194;-61
2023/04/19 07:03:33;;;;;;;3.35;2.25;;;9.10;61.50;;;;;;5033861;28;20229;-61
2023/04/19 07:06:00;;;;;;;3.33;2.00;;;9.20;60.70;;;;;;5034330;28;20206;-60
2023/04/19 07:08:27;;;;;;;3.00;1.83;;;9.30;60.00;;;;;;5034359;28;20198;-60
2023/04/19 07:10:55;;;;;;;4.35;2.45;;;9.30;58.90;;;;;;5033417;28;20313;-61
2023/04/19 07:13:22;;;;;;;4.72;2.10;;;9.30;58.10;;;;;;5033793;28;20230;-61
2023/04/19 07:15:49;;;;;;;2.35;1.83;;;9.20;57.40;;;;;;5033567;28;20671;-62
2023/04/19 07:18:16;;;;;;;2.00;1.90;;;9.20;57.00;;;;;;5034296;28;20203;-61
2023/04/19 07:20:47;;;;;;;3.97;2.50;;;9.20;56.60;;;;;;5033859;28;20289;-62
2023/04/19 07:23:14;;;;;;;2.75;1.70;;;9.20;56.30;;;;;;5033738;28;20226;-62
2023/04/19 07:25:41;;;;;;;4.47;2.10;;;9.20;56.00;;;;;;5033901;28;20304;-61
2023/04/19 07:28:08;;;;;;;2.25;2.05;;;9.20;55.30;;;;;;5033286;28;20206;-62
2023/04/19 07:30:36;;;;;;;5.47;2.58;;;9.30;54.90;;;;;;5033486;28;20232;-62
2023/04/19 07:33:07;;;;;;;3.75;2.13;;;9.30;54.60;;;;;;5032862;28;20237;-63
2023/04/19 07:35:34;;;;;;;2.83;2.63;;;9.40;54.60;;;;;;5032883;28;20641;-62
2023/04/19 07:38:02;;;;;;;2.25;2.05;;;9.50;54.60;;;;;;5032854;28;20213;-61
2023/04/19 07:40:29;;;;;;;2.47;2.15;;;9.60;54.50;;;;;;5033892;28;20248;-61
2023/04/19 07:42:56;;;;;;;2.30;2.10;;;9.70;54.40;;;;;;5033177;28;20641;-62
2023/04/19 07:45:23;;;;;;;4.18;2.85;;;9.80;54.10;;;;;;5032819;28;20577;-62
2023/04/19 07:47:50;;;;;;;3.20;2.33;;;9.90;53.90;;;;;;5033464;28;20667;-61
2023/04/19 07:50:17;;;;;;;3.42;2.55;;;10.00;52.60;;;;;;5033122;28;20459;-61
2023/04/19 07:52:44;;;;;;;2.80;2.25;;;10.00;51.90;;;;;;5033198;28;20226;-62
2023/04/19 07:55:12;;;;;;;2.58;2.10;;;10.10;51.40;;;;;;5032778;28;20587;-61
2023/04/19 07:57:39;;;;;;;3.45;2.55;;;10.10;51.00;;;;;;5032891;28;20202;-61
2023/04/19 08:00:09;;;;;;;4.20;2.83;;;10.30;51.00;;;;;;5033008;28;20297;-62
2023/04/19 08:02:36;;;;;;;2.87;1.87;;;10.40;49.90;;;;;;5033102;28;20468;-63
2023/04/19 08:05:03;;;;;;;5.07;2.63;;;10.40;49.00;;;;;;5032976;28;20476;-61
2023/04/19 08:07:30;;;;;;;3.00;2.10;;;10.50;48.90;;;;;;5033109;28;20461;-62
2023/04/19 08:09:57;;;;;;;4.30;2.13;;;10.50;48.60;;;;;;5032912;28;20455;-62
2023/04/19 08:12:25;;;;;;;2.43;2.23;;;10.50;48.40;;;;;;5032813;28;20584;-62
2023/04/19 08:14:52;;;;;;;5.43;2.00;;;10.60;48.40;;;;;;5033240;28;20571;-63
2023/04/19 08:17:20;;;;;;;6.07;2.53;;;10.70;46.20;;;;;;5032882;28;20795;-62
2023/04/19 08:19:48;;;;;;;3.50;2.17;;;10.60;45.70;;;;;;5032953;28;20443;-62
2023/04/19 08:22:15;;;;;;;8.00;2.30;;;10.60;46.00;;;;;;5032638;28;20449;-62
2023/04/19 08:24:41;;;;;;;3.03;2.50;;;10.80;44.50;;;;;;5032954;28;20448;-63
2023/04/19 08:27:09;;;;;;;5.93;2.10;;;10.90;42.70;;;;;;5033146;28;20441;-61
2023/04/19 08:29:38;;;;;;;4.00;2.30;;;11.00;42.00;;;;;;5033105;28;20939;-62
2023/04/19 08:32:05;;;;;;;2.50;2.30;;;11.10;41.50;;;;;;5033747;28;20491;-62
2023/04/19 08:34:35;;;;;;;3.40;2.20;;;11.20;41.10;;;;;;5032792;28;20485;-62
2023/04/19 08:37:02;;;;;;;2.47;2.27;;;11.40;40.50;;;;;;5033106;28;20451;-64
2023/04/19 08:39:29;;;;;;;3.10;2.27;;;11.40;40.00;;;;;;5032954;28;20449;-62
2023/04/19 08:41:56;;;;;;;3.90;2.27;;;11.40;39.10;;;;;;5032906;28;20436;-62
2023/04/19 08:44:23;;;;;;;4.50;2.40;;;11.40;38.70;;;;;;5033373;28;20502;-62
2023/04/19 08:46:52;;;;;;;2.23;1.90;;;11.40;39.00;;;;;;5032995;28;20531;-62
2023/04/19 08:49:20;;;;;;;2.10;1.90;;;11.40;38.30;;;;;;5032944;28;20445;-62
2023/04/19 08:51:48;;;;;;;3.77;1.93;;;11.40;38.30;;;;;;5033252;28;20481;-62
2023/04/19 08:54:15;;;;;;;3.10;2.43;;;11.50;38.40;;;;;;5032780;28;20465;-63
2023/04/19 08:56:42;;;;;;;3.10;2.50;;;11.50;38.30;;;;;;5034197;28;20795;-63
2023/04/19 08:59:09;;;;;;;3.57;2.00;;;11.70;38.70;;;;;;5036876;28;20453;-63
2023/04/19 09:01:36;;;;;;;2.80;2.07;;;11.80;38.20;;;;;;5036449;28;20529;-64
2023/04/19 09:04:06;;;;;;;2.43;2.23;;;11.90;37.20;;;;;;5036621;28;20469;-63
2023/04/19 09:06:36;;;;;;;2.37;2.00;;;11.90;36.20;;;;;;5036547;28;20441;-63
2023/04/19 09:09:16;;;;;;;3.47;2.17;;;11.90;35.60;;;;;;5037237;28;20477;-61
2023/04/19 09:11:42;;;;;;;2.63;2.33;;;11.90;35.40;;;;;;5037043;28;20465;-62
2023/04/19 09:14:10;;;;;;;2.63;2.17;;;11.90;35.50;;;;;;5036603;28;20475;-63
2023/04/19 09:16:38;;;;;;;3.30;2.40;;;11.90;35.40;;;;;;5036223;28;21006;-62
2023/04/19 09:19:07;;;;;;;3.90;2.60;;;12.00;35.00;;;;;;5036576;28;20445;-62
2023/04/19 09:21:35;;;;;;;2.83;2.10;;;12.10;34.80;;;;;;5036920;28;20502;-62
2023/04/19 09:24:02;;;;;;;4.80;2.07;;;12.10;34.10;;;;;;5036423;28;20480;-62
2023/04/19 09:26:29;;;;;;;4.40;1.90;;;12.10;33.70;;;;;;5036893;28;20449;-63
2023/04/19 09:28:57;;;;;;;2.70;2.00;;;12.10;33.50;;;;;;5036457;28;20445;-63
2023/04/19 09:31:26;;;;;;;2.60;1.87;;;12.10;33.70;;;;;;5036402;28;20481;-62
2023/04/19 09:33:54;;;;;;;3.07;2.10;;;12.10;33.10;;;;;;5035803;28;20485;-61
2023/04/19 09:36:29;;;;;;;3.53;2.30;;;12.20;33.20;;;;;;5036069;28;20819;-63
2023/04/19 09:38:56;;;;;;;3.83;2.17;;;12.30;32.80;;;;;;5036307;28;20579;-62
2023/04/19 09:41:23;;;;;;;3.17;2.27;;;12.30;32.80;;;;;;5036065;28;20526;-63
2023/04/19 09:43:51;;;;;;;4.60;2.20;;;12.40;33.00;;;;;;5035549;28;20471;-63
2023/04/19 09:46:31;;;;;;;2.23;2.03;;;12.50;32.60;;;;;;5035868;28;20495;-63
2023/04/19 09:49:16;;;;;;;2.00;1.80;;;12.50;33.20;;;;;;5035875;28;20507;-62
2023/04/19 09:51:45;;;;;;;2.73;2.13;;;12.60;32.90;;;;;;5036336;28;20464;-63
2023/04/19 09:54:13;;;;;;;4.13;2.57;;;12.70;33.20;;;;;;5036041;28;20469;-63
2023/04/19 09:56:40;;;;;;;2.90;2.30;;;12.90;33.60;;;;;;5036668;28;20449;-63
2023/04/19 09:59:08;;;;;;;2.77;2.00;;;13.00;33.80;;;;;;5036393;28;20498;-63
2023/04/19 10:01:38;;;;;;;2.10;1.90;;;13.20;33.80;;;;;;5037044;28;20616;-63
2023/04/19 10:04:06;;;;;;;2.50;2.30;;;13.30;33.70;;;;;;5035890;28;20905;-63
2023/04/19 10:06:34;;;;;;;5.60;2.27;;;13.40;33.80;;;;;;5035204;28;20441;-61
2023/04/19 10:09:04;;;;;;;2.47;2.03;;;13.60;33.60;;;;;;5035065;28;20503;-61
2023/04/19 10:11:37;;;;;;;2.77;2.43;;;13.60;33.40;;;;;;5034642;28;21040;-62
2023/04/19 10:14:06;;;;;;;3.20;2.40;;;13.60;33.50;;;;;;5035055;28;20469;-64
2023/04/19 10:16:33;;;;;;;3.57;2.10;;;13.60;33.60;;;;;;5035207;28;20449;-62
2023/04/19 10:19:00;;;;;;;2.90;2.10;;;13.50;32.50;;;;;;5035385;28;20445;-63
2023/04/19 10:21:29;;;;;;;2.23;2.03;;;13.40;32.60;;;;;;5035680;28;20441;-63
2023/04/19 10:23:58;;;;;;;2.40;1.70;;;13.50;32.50;;;;;;5035087;28;20469;-61
2023/04/19 10:26:26;;;;;;;2.57;2.13;;;13.50;32.00;;;;;;5035306;28;20449;-64
2023/04/19 10:28:56;;;;;;;4.60;2.07;;;13.50;31.90;;;;;;5034957;28;20976;-63
2023/04/19 10:31:25;;;;;;;3.30;1.90;;;13.60;31.90;;;;;;5034626;28;20954;-64
2023/04/19 10:33:51;;;;;;;3.50;2.40;;;13.60;31.70;;;;;;5034912;28;20488;-63
2023/04/19 10:36:20;;;;;;;3.33;2.00;;;13.60;30.30;;;;;;5035196;28;20440;-62
2023/04/19 10:38:48;;;;;;;3.53;2.40;;;13.70;30.30;;;;;;5034430;28;20954;-63
2023/04/19 10:41:15;;;;;;;2.67;1.97;;;13.90;30.40;;;;;;5035082;28;20503;-64
2023/04/19 10:43:46;;;;;;;2.80;1.83;;;14.10;29.60;;;;;;5035227;28;20471;-63
2023/04/19 10:46:38;;;;;;;2.77;1.53;;;14.20;29.30;;;;;;5035718;28;20437;-62
2023/04/19 10:49:06;;;;;;;2.60;1.90;;;14.20;28.10;;;;;;5034894;28;20911;-62
2023/04/19 10:51:35;;;;;;;4.10;2.17;;;14.10;27.40;;;;;;5035344;28;20481;-64
2023/04/19 10:54:03;;;;;;;3.30;2.07;;;14.10;27.40;;;;;;5036396;28;20979;-64
2023/04/19 10:57:10;;;;;;;4.70;1.87;;;14.10;27.40;;;;;;5036332;28;20449;-63
2023/04/19 10:59:41;;;;;;;3.87;2.10;;;14.20;27.30;;;;;;5037159;28;20461;-64
2023/04/19 11:02:31;;;;;;;2.50;1.90;;;14.40;27.30;;;;;;5037411;28;20426;-63
2023/04/19 11:05:00;;;;;;;2.93;2.20;;;14.50;27.00;;;;;;5039516;28;20429;-63
2023/04/19 11:07:27;;;;;;;2.23;2.03;;;14.50;26.90;;;;;;5036206;28;20829;-63
2023/04/19 11:09:54;;;;;;;3.90;2.03;;;14.50;26.90;;;;;;5035424;28;20441;-64
2023/04/19 11:12:21;;;;;;;2.43;2.20;;;14.50;27.00;;;;;;5035410;28;20485;-62
2023/04/19 11:14:53;;;;;;;2.13;1.57;;;14.60;27.20;;;;;;5035486;28;20537;-63
2023/04/19 11:17:24;;;;;;;2.13;1.87;;;14.80;27.20;;;;;;5034849;28;20484;-63
2023/04/19 11:19:55;;;;;;;1.97;1.60;;;14.90;26.90;;;;;;5034095;28;20880;-62
2023/04/19 11:22:41;;;;;;;4.00;2.30;;;14.90;26.60;;;;;;5034781;28;20445;-61
2023/04/19 11:25:10;;;;;;;1.67;1.57;;;14.80;26.60;;;;;;5035578;28;20521;-63
2023/04/19 11:27:38;;;;;;;3.93;2.10;;;14.80;27.50;;;;;;5035408;28;20821;-63
2023/04/19 11:30:09;;;;;;;3.37;1.90;;;14.70;27.10;;;;;;5036127;28;20472;-64
2023/04/19 11:32:36;;;;;;;2.17;1.50;;;14.60;27.30;;;;;;5034516;28;20521;-63
2023/04/19 11:35:08;;;;;;;2.60;2.23;;;14.60;27.70;;;;;;5035021;28;20429;-61
2023/04/19 11:37:36;;;;;;;2.83;1.80;;;14.70;27.70;;;;;;5034050;28;20445;-64
2023/04/19 11:40:03;;;;;;;2.50;2.07;;;14.80;27.70;;;;;;5033892;28;20449;-63
2023/04/19 11:42:31;;;;;;;2.57;2.13;;;14.90;27.70;;;;;;5034484;28;20465;-63
2023/04/19 11:44:58;;;;;;;3.37;2.17;;;14.90;27.40;;;;;;5034672;28;20456;-64
2023/04/19 11:47:27;;;;;;;3.77;2.23;;;15.00;27.60;;;;;;5034507;28;20449;-63
2023/04/19 11:49:55;;;;;;;3.43;2.03;;;15.40;27.60;;;;;;5034031;28;20947;-63
2023/04/19 11:52:23;;;;;;;2.60;1.90;;;15.90;27.70;;;;;;5033556;28;20481;-62
2023/04/19 11:54:51;;;;;;;9.20;2.10;;;16.30;27.00;;;;;;5034143;28;20451;-64
2023/04/19 11:57:28;;;;;;;2.80;2.40;;;16.60;26.60;;;;;;5034508;28;20441;-63
2023/04/19 12:00:10;;;;;;;3.47;2.43;;;16.70;26.50;;;;;;5033500;28;20429;-63
2023/04/19 12:02:39;;;;;;;4.60;2.20;;;16.80;26.30;;;;;;5034398;28;20469;-63
2023/04/19 12:05:11;;;;;;;2.23;1.90;;;16.90;26.50;;;;;;5034077;28;20479;-63
2023/04/19 12:07:37;;;;;;;5.70;2.50;;;17.10;26.30;;;;;;5033354;28;20445;-63
2023/04/19 12:10:12;;;;;;;3.60;1.83;;;17.40;26.00;;;;;;5032936;28;20957;-64
2023/04/19 12:12:39;;;;;;;3.73;1.80;;;17.70;25.70;;;;;;5033440;28;20488;-64
2023/04/19 12:15:07;;;;;;;2.73;1.90;;;17.90;25.30;;;;;;5033706;28;20849;-64
2023/04/19 12:17:34;;;;;;;2.60;2.40;;;17.80;24.60;;;;;;5034020;28;20449;-64
2023/04/19 12:20:03;;;;;;;3.33;1.87;;;17.50;25.00;;;;;;5033504;28;20448;-64
2023/04/19 12:22:30;;;;;;;3.50;2.10;;;17.40;25.40;;;;;;5032997;28;20465;-63
2023/04/19 12:24:57;;;;;;;2.57;2.10;;;17.10;25.60;;;;;;5033001;28;20942;-64
2023/04/19 12:27:24;;;;;;;2.97;2.53;;;16.60;26.00;;;;;;5033299;28;20445;-64
2023/04/19 12:29:51;;;;;;;2.67;2.20;;;16.20;26.20;;;;;;5033466;28;20453;-63
2023/04/19 12:32:18;;;;;;;4.83;2.33;;;15.80;26.50;;;;;;5034872;28;21005;-64
2023/04/19 12:34:45;;;;;;;3.23;2.20;;;15.40;26.80;;;;;;5037099;28;20907;-64
2023/04/19 12:37:13;;;;;;;2.70;2.23;;;15.20;27.10;;;;;;5037207;28;20451;-65
2023/04/19 12:39:40;;;;;;;3.57;2.33;;;15.00;27.00;;;;;;5036674;28;20479;-64
2023/04/19 12:42:06;;;;;;;2.53;2.13;;;14.90;27.60;;;;;;5036517;28;20543;-63
2023/04/19 12:44:33;;;;;;;3.40;2.13;;;14.80;27.20;;;;;;5036415;28;20548;-62
2023/04/19 12:47:00;;;;;;;3.63;2.60;;;14.70;27.40;;;;;;5037033;28;20543;-63
2023/04/19 12:49:27;;;;;;;2.47;2.10;;;14.70;27.40;;;;;;5036666;28;20535;-63
2023/04/19 12:51:54;;;;;;;3.40;2.20;;;14.90;27.50;;;;;;5036979;28;20448;-64
2023/04/19 12:54:22;;;;;;;2.87;1.57;;;15.00;27.30;;;;;;5036710;28;20898;-63
2023/04/19 12:56:49;;;;;;;3.93;2.83;;;15.00;27.30;;;;;;5036576;28;20441;-63
2023/04/19 12:59:16;;;;;;;5.90;2.53;;;15.20;27.60;;;;;;5036080;28;20443;-62